Time;durP1;ratioP1;P1;durP2;ratioP2;P2;SDS_P1;SDS_P2;PMS_P1;PMS_P2;Temp;Humidity;BMP_temperature;BMP_pressure;BME280_temperature;BME280_humidity;BME280_pressure;Samples;Min_cycle;Max_cycle;Signal;HPM_P1;HPM_P2
2021/12/02 00:01:12;;;;;;;1.07;0.97;;;;;;;;;;5052667;28;20434;-64
2021/12/02 00:03:39;;;;;;;1.33;1.10;;;;;;;;;;5046292;28;20412;-65
2021/12/02 00:06:10;;;;;;;0.87;0.80;;;;;;;;;;5032766;28;20454;-65
2021/12/02 00:08:37;;;;;;;1.03;0.70;;;;;;;;;;5032783;28;20882;-64
2021/12/02 00:11:03;;;;;;;1.43;0.70;;;;;;;;;;5035856;28;20412;-64
2021/12/02 00:13:36;;;;;;;0.87;0.67;;;;;;;;;;5052611;28;20449;-64
2021/12/02 00:21:21;;;;;;;1.40;0.70;;;;;;;;;;5046075;28;20469;-64
2021/12/02 00:24:01;;;;;;;0.70;0.60;;;;;;;;;;5036333;28;20410;-63
2021/12/02 00:26:28;;;;;;;0.70;0.70;;;;;;;;;;5036391;28;20913;-64
2021/12/02 00:28:56;;;;;;;1.03;0.87;;;;;;;;;;5036347;28;20410;-64
2021/12/02 00:31:23;;;;;;;1.13;0.77;;;;;;;;;;5049573;28;20532;-64
2021/12/02 00:33:54;;;;;;;0.70;0.70;;;;;;;;;;5056027;28;20406;-63
2021/12/02 00:36:21;;;;;;;0.90;0.70;;;;;;;;;;5055981;28;20884;-65
2021/12/02 00:38:48;;;;;;;1.00;0.73;;;;;;;;;;5055197;28;20511;-64
2021/12/02 00:41:15;;;;;;;0.90;0.70;;;;;;;;;;5055910;28;20394;-64
2021/12/02 00:43:42;;;;;;;0.90;0.90;;;;;;;;;;5055862;28;20417;-64
2021/12/02 00:46:10;;;;;;;1.03;0.70;;;;;;;;;;5055853;28;20409;-63
2021/12/02 00:48:37;;;;;;;1.43;0.63;;;;;;;;;;5044333;28;20430;-66
2021/12/02 00:51:03;;;;;;;0.70;0.70;;;;;;;;;;5035651;28;20460;-64
2021/12/02 00:53:31;;;;;;;0.80;0.60;;;;;;;;;;5035772;28;20424;-63
2021/12/02 00:55:57;;;;;;;0.80;0.63;;;;;;;;;;5038783;28;20465;-63
2021/12/02 00:58:23;;;;;;;0.70;0.60;;;;;;;;;;5055670;28;20420;-63
2021/12/02 01:00:51;;;;;;;0.70;0.70;;;;;;;;;;5055375;28;20433;-63
2021/12/02 01:03:18;;;;;;;0.80;0.70;;;;;;;;;;5055621;28;20463;-63
2021/12/02 01:05:45;;;;;;;0.70;0.70;;;;;;;;;;5038804;28;20569;-63
2021/12/02 01:08:12;;;;;;;3.13;0.87;;;;;;;;;;5050041;28;20768;-63
2021/12/02 01:10:39;;;;;;;0.70;0.70;;;;;;;;;;5055313;28;20469;-64
2021/12/02 01:13:05;;;;;;;1.33;0.77;;;;;;;;;;5055114;28;20500;-64
2021/12/02 01:15:31;;;;;;;1.23;1.00;;;;;;;;;;5054340;28;20421;-64
2021/12/02 01:17:57;;;;;;;1.90;0.67;;;;;;;;;;5055141;28;20405;-63
2021/12/02 01:20:23;;;;;;;0.70;0.70;;;;;;;;;;5055105;28;20926;-64
2021/12/02 01:22:50;;;;;;;0.80;0.80;;;;;;;;;;5055105;28;20726;-64
2021/12/02 01:25:17;;;;;;;1.40;0.80;;;;;;;;;;5036306;28;20423;-63
2021/12/02 01:27:44;;;;;;;2.17;0.90;;;;;;;;;;5035107;28;20878;-63
2021/12/02 01:30:10;;;;;;;4.03;0.80;;;;;;;;;;5034944;28;20434;-64
2021/12/02 01:32:39;;;;;;;1.80;0.90;;;;;;;;;;5043131;28;20481;-63
2021/12/02 01:35:05;;;;;;;2.00;0.90;;;;;;;;;;5054910;28;20421;-64
2021/12/02 01:37:31;;;;;;;0.70;0.70;;;;;;;;;;5054925;28;20791;-64
2021/12/02 01:39:58;;;;;;;0.93;0.80;;;;;;;;;;5054637;28;20484;-64
2021/12/02 01:42:25;;;;;;;3.20;1.00;;;;;;;;;;5053790;28;20783;-65
2021/12/02 01:44:53;;;;;;;1.20;0.87;;;;;;;;;;5054781;28;20495;-64
2021/12/02 01:47:22;;;;;;;2.00;0.80;;;;;;;;;;5051304;28;20493;-65
2021/12/02 01:49:51;;;;;;;2.53;1.03;;;;;;;;;;5053727;28;20405;-63
2021/12/02 01:52:20;;;;;;;0.93;0.80;;;;;;;;;;5054603;28;20467;-63
2021/12/02 01:54:47;;;;;;;1.00;0.90;;;;;;;;;;5054492;28;20519;-65
2021/12/02 01:57:21;;;;;;;3.60;0.90;;;;;;;;;;5053551;28;20808;-64
2021/12/02 01:59:48;;;;;;;1.63;1.53;;;;;;;;;;5034510;28;20403;-65
2021/12/02 02:02:16;;;;;;;3.70;1.10;;;;;;;;;;5034403;28;20407;-65
2021/12/02 02:04:42;;;;;;;1.37;0.70;;;;;;;;;;5034198;28;20422;-64
2021/12/02 02:07:12;;;;;;;1.60;0.80;;;;;;;;;;5054296;28;20943;-64
2021/12/02 02:09:38;;;;;;;0.80;0.80;;;;;;;;;;5054195;28;20738;-64
2021/12/02 02:12:06;;;;;;;1.60;0.80;;;;;;;;;;5054182;28;20472;-64
2021/12/02 02:14:32;;;;;;;0.80;0.70;;;;;;;;;;5053244;28;20423;-63
2021/12/02 02:17:02;;;;;;;1.10;0.80;;;;;;;;;;5054165;28;20897;-63
2021/12/02 02:19:31;;;;;;;2.43;0.73;;;;;;;;;;5054039;28;20406;-65
2021/12/02 02:21:57;;;;;;;1.83;0.80;;;;;;;;;;5038493;28;20446;-64
2021/12/02 02:24:23;;;;;;;2.63;0.73;;;;;;;;;;5034092;28;20427;-63
2021/12/02 02:26:49;;;;;;;2.17;0.73;;;;;;;;;;5034044;28;20396;-64
2021/12/02 02:29:17;;;;;;;5.63;0.83;;;;;;;;;;5034088;28;20399;-64
2021/12/02 02:31:44;;;;;;;1.57;0.87;;;;;;;;;;5049500;28;20527;-63
2021/12/02 02:34:11;;;;;;;0.70;0.70;;;;;;;;;;5053776;28;20402;-63
2021/12/02 02:36:40;;;;;;;1.57;0.60;;;;;;;;;;5053848;28;20411;-64
2021/12/02 02:39:06;;;;;;;2.50;0.70;;;;;;;;;;5053741;28;20928;-64
2021/12/02 02:41:35;;;;;;;1.00;0.90;;;;;;;;;;5052950;28;20423;-64
2021/12/02 02:44:01;;;;;;;0.87;0.63;;;;;;;;;;5053517;28;20810;-63
2021/12/02 02:46:29;;;;;;;1.83;0.90;;;;;;;;;;5053616;28;20492;-64
2021/12/02 02:48:55;;;;;;;2.40;0.70;;;;;;;;;;5053417;28;20421;-64
2021/12/02 02:51:21;;;;;;;1.47;0.70;;;;;;;;;;5035451;28;20454;-63
2021/12/02 02:53:55;;;;;;;1.07;0.70;;;;;;;;;;5033511;28;20436;-63
2021/12/02 02:56:22;;;;;;;1.97;0.90;;;;;;;;;;5033470;28;20454;-64
2021/12/02 03:04:47;;;;;;;0.70;0.60;;;;;;;;;;5033366;28;20407;-64
2021/12/02 03:06:54;;;;;;;4.30;0.70;;;;;;;;;;5051787;28;20407;-63
2021/12/02 03:12:04;;;;;;;0.73;0.60;;;;;;;;;;5053156;28;20481;-63
2021/12/02 03:14:37;;;;;;;0.77;0.60;;;;;;;;;;5052352;28;20426;-64
2021/12/02 03:17:03;;;;;;;0.90;0.60;;;;;;;;;;5053107;28;20747;-64
2021/12/02 03:19:30;;;;;;;1.37;0.70;;;;;;;;;;5053197;28;20415;-64
2021/12/02 03:21:57;;;;;;;1.00;0.77;;;;;;;;;;5053120;28;20403;-63
2021/12/02 03:24:23;;;;;;;1.63;0.70;;;;;;;;;;5034578;28;20442;-64
2021/12/02 03:26:50;;;;;;;3.37;0.70;;;;;;;;;;5033197;28;20415;-65
2021/12/02 03:29:16;;;;;;;1.07;0.63;;;;;;;;;;5033027;28;20412;-63
2021/12/02 03:31:42;;;;;;;1.10;0.67;;;;;;;;;;5032967;28;20568;-64
2021/12/02 03:34:08;;;;;;;0.80;0.70;;;;;;;;;;5032955;28;20802;-63
2021/12/02 03:36:36;;;;;;;1.80;0.53;;;;;;;;;;5033565;28;20846;-64
2021/12/02 03:39:03;;;;;;;0.60;0.57;;;;;;;;;;5035002;28;20416;-63
2021/12/02 03:41:29;;;;;;;0.70;0.70;;;;;;;;;;5033718;28;20422;-63
2021/12/02 03:43:56;;;;;;;2.17;0.80;;;;;;;;;;5052810;28;20912;-64
2021/12/02 03:46:23;;;;;;;1.93;0.80;;;;;;;;;;5052987;28;20469;-63
2021/12/02 03:48:49;;;;;;;0.60;0.50;;;;;;;;;;5052887;28;20405;-65
2021/12/02 03:51:17;;;;;;;1.03;0.70;;;;;;;;;;5051827;28;20465;-64
2021/12/02 03:53:43;;;;;;;1.47;0.80;;;;;;;;;;5052733;28;20762;-64
2021/12/02 03:56:09;;;;;;;2.40;0.70;;;;;;;;;;5055904;28;20458;-63
2021/12/02 03:58:36;;;;;;;1.73;0.63;;;;;;;;;;5056841;28;20899;-63
2021/12/02 04:01:03;;;;;;;1.43;0.70;;;;;;;;;;5045671;28;20545;-64
2021/12/02 04:03:29;;;;;;;0.70;0.60;;;;;;;;;;5036560;28;20913;-64
2021/12/02 04:05:55;;;;;;;0.70;0.70;;;;;;;;;;5036697;28;20432;-64
2021/12/02 04:08:28;;;;;;;2.93;0.80;;;;;;;;;;5036855;28;20425;-65
2021/12/02 04:10:59;;;;;;;0.97;0.80;;;;;;;;;;5036467;28;20909;-65
2021/12/02 04:13:30;;;;;;;0.70;0.70;;;;;;;;;;5036618;28;20903;-64
2021/12/02 04:16:02;;;;;;;1.20;0.80;;;;;;;;;;5036582;28;20407;-64
2021/12/02 04:18:28;;;;;;;0.80;0.60;;;;;;;;;;5036410;28;20423;-64
2021/12/02 04:20:54;;;;;;;0.70;0.70;;;;;;;;;;5036366;28;20918;-64
2021/12/02 04:23:20;;;;;;;1.00;0.77;;;;;;;;;;5036356;28;20419;-65
2021/12/02 04:25:46;;;;;;;0.93;0.70;;;;;;;;;;5036318;28;20473;-64
2021/12/02 04:28:12;;;;;;;0.80;0.70;;;;;;;;;;5053825;28;20422;-64
2021/12/02 04:30:38;;;;;;;0.70;0.70;;;;;;;;;;5055721;28;20486;-65
2021/12/02 04:33:04;;;;;;;0.70;0.70;;;;;;;;;;5056132;28;20468;-64
2021/12/02 04:35:30;;;;;;;1.60;0.90;;;;;;;;;;5051526;28;20514;-65
2021/12/02 04:37:56;;;;;;;2.00;0.73;;;;;;;;;;5036247;28;20409;-64
2021/12/02 04:40:24;;;;;;;1.13;0.80;;;;;;;;;;5036142;28;20403;-64
2021/12/02 04:42:50;;;;;;;0.87;0.87;;;;;;;;;;5035971;28;20494;-64
2021/12/02 04:45:16;;;;;;;0.90;0.73;;;;;;;;;;5035711;28;20423;-65
2021/12/02 04:47:42;;;;;;;5.57;0.80;;;;;;;;;;5035949;28;20436;-64
2021/12/02 04:50:09;;;;;;;1.43;0.70;;;;;;;;;;5035846;28;20778;-64
2021/12/02 04:52:35;;;;;;;1.20;1.03;;;;;;;;;;5035529;28;20510;-65
2021/12/02 04:55:02;;;;;;;1.53;1.03;;;;;;;;;;5035611;28;20412;-64
2021/12/02 04:57:28;;;;;;;1.50;0.80;;;;;;;;;;5035736;28;20476;-64
2021/12/02 04:59:54;;;;;;;2.60;0.83;;;;;;;;;;5035613;28;20487;-64
2021/12/02 05:02:20;;;;;;;3.03;0.90;;;;;;;;;;5053701;28;20442;-64
2021/12/02 05:04:46;;;;;;;0.90;0.70;;;;;;;;;;5055492;28;20414;-64
2021/12/02 05:07:12;;;;;;;1.00;0.80;;;;;;;;;;5053897;28;20954;-64
2021/12/02 05:09:38;;;;;;;1.23;0.60;;;;;;;;;;5054599;28;20429;-65
2021/12/02 05:12:04;;;;;;;0.80;0.80;;;;;;;;;;5055277;28;20465;-64
2021/12/02 05:14:30;;;;;;;0.97;0.97;;;;;;;;;;5055350;28;20464;-64
2021/12/02 05:16:56;;;;;;;0.90;0.70;;;;;;;;;;5053932;28;20500;-64
2021/12/02 05:19:22;;;;;;;0.80;0.80;;;;;;;;;;5035216;28;20429;-64
2021/12/02 05:21:48;;;;;;;1.27;1.07;;;;;;;;;;5035363;28;20423;-65
2021/12/02 05:24:14;;;;;;;1.20;0.90;;;;;;;;;;5035290;28;20902;-65
2021/12/02 05:26:40;;;;;;;3.10;1.00;;;;;;;;;;5035185;28;20476;-65
2021/12/02 05:29:06;;;;;;;1.03;0.93;;;;;;;;;;5035026;28;20423;-64
2021/12/02 05:31:33;;;;;;;1.50;1.00;;;;;;;;;;5034777;28;20881;-64
2021/12/02 05:33:59;;;;;;;1.90;0.73;;;;;;;;;;5035005;28;20438;-64
2021/12/02 05:36:25;;;;;;;1.20;1.10;;;;;;;;;;5042741;28;20906;-66
2021/12/02 05:38:51;;;;;;;2.03;0.90;;;;;;;;;;5051454;28;20414;-64
2021/12/02 05:41:17;;;;;;;0.90;0.80;;;;;;;;;;5054764;28;20399;-64
2021/12/02 05:43:43;;;;;;;0.70;0.70;;;;;;;;;;5053951;28;20449;-66
2021/12/02 05:46:10;;;;;;;1.13;0.93;;;;;;;;;;5054772;28;20423;-65
2021/12/02 05:48:36;;;;;;;1.07;0.80;;;;;;;;;;5054743;28;20502;-65
2021/12/02 05:51:02;;;;;;;3.03;0.90;;;;;;;;;;5054425;28;20508;-64
2021/12/02 05:53:28;;;;;;;1.63;1.53;;;;;;;;;;5041996;28;20443;-65
2021/12/02 05:55:54;;;;;;;2.07;0.90;;;;;;;;;;5034451;28;20895;-64
2021/12/02 05:58:20;;;;;;;1.00;0.90;;;;;;;;;;5034611;28;21021;-65
2021/12/02 06:00:46;;;;;;;1.83;0.90;;;;;;;;;;5034370;28;20802;-64
2021/12/02 06:03:12;;;;;;;3.07;1.10;;;;;;;;;;5034529;28;20476;-65
2021/12/02 06:05:38;;;;;;;3.33;1.00;;;;;;;;;;5034279;28;20418;-65
2021/12/02 06:08:05;;;;;;;2.90;0.93;;;;;;;;;;5034169;28;20453;-64
2021/12/02 06:10:31;;;;;;;1.83;0.80;;;;;;;;;;5034143;28;20410;-64
2021/12/02 06:12:58;;;;;;;0.90;0.70;;;;;;;;;;5034270;28;20482;-64
2021/12/02 06:15:24;;;;;;;0.77;0.60;;;;;;;;;;5034241;28;20402;-64
2021/12/02 06:17:50;;;;;;;2.40;0.70;;;;;;;;;;5033678;28;20436;-64
2021/12/02 06:20:17;;;;;;;1.20;0.70;;;;;;;;;;5034162;28;20418;-64
2021/12/02 06:22:44;;;;;;;1.30;0.80;;;;;;;;;;5034154;28;20424;-64
2021/12/02 06:27:39;;;;;;;0.97;0.63;;;;;;;;;;5053966;28;20423;-66
2021/12/02 06:30:05;;;;;;;1.40;0.67;;;;;;;;;;5053658;28;20427;-64
2021/12/02 06:32:31;;;;;;;1.57;0.70;;;;;;;;;;5053748;28;20685;-64
2021/12/02 06:34:57;;;;;;;0.83;0.70;;;;;;;;;;5034439;28;20510;-64
2021/12/02 06:37:24;;;;;;;1.80;0.60;;;;;;;;;;5033856;28;20442;-64
2021/12/02 06:39:50;;;;;;;1.10;0.60;;;;;;;;;;5033691;28;20404;-64
2021/12/02 06:42:16;;;;;;;1.80;0.60;;;;;;;;;;5033892;28;20407;-66
2021/12/02 06:44:43;;;;;;;0.90;0.70;;;;;;;;;;5053668;28;20553;-64
2021/12/02 06:47:09;;;;;;;3.57;1.57;;;;;;;;;;5053608;28;20898;-64
2021/12/02 06:49:35;;;;;;;2.27;0.97;;;;;;;;;;5053503;28;20419;-64
2021/12/02 06:52:03;;;;;;;1.93;1.03;;;;;;;;;;5040631;28;20488;-64
2021/12/02 06:54:29;;;;;;;11.63;1.10;;;;;;;;;;5033516;28;20411;-64
2021/12/02 06:56:55;;;;;;;1.43;0.80;;;;;;;;;;5033261;28;20591;-64
2021/12/02 06:59:21;;;;;;;1.77;1.13;;;;;;;;;;5033225;28;20527;-65
2021/12/02 07:01:48;;;;;;;2.20;0.80;;;;;;;;;;5033227;28;21015;-65
2021/12/02 07:04:14;;;;;;;2.20;1.30;;;;;;;;;;5050255;28;20414;-66
2021/12/02 07:06:40;;;;;;;1.43;0.90;;;;;;;;;;5053236;28;20456;-66
2021/12/02 07:09:06;;;;;;;0.83;0.80;;;;;;;;;;5052960;28;20755;-65
2021/12/02 07:11:33;;;;;;;1.37;0.90;;;;;;;;;;5052195;28;20474;-65
2021/12/02 07:14:03;;;;;;;1.23;0.90;;;;;;;;;;5053018;28;20502;-65
2021/12/02 07:16:29;;;;;;;2.40;0.97;;;;;;;;;;5052997;28;20396;-66
2021/12/02 07:18:57;;;;;;;1.23;1.10;;;;;;;;;;5051964;28;20432;-66
2021/12/02 07:21:24;;;;;;;1.77;0.87;;;;;;;;;;5053082;28;20399;-66
2021/12/02 07:23:51;;;;;;;0.80;0.70;;;;;;;;;;5052986;28;20422;-66
2021/12/02 07:26:17;;;;;;;0.90;0.70;;;;;;;;;;5053097;28;20934;-66
2021/12/02 07:28:44;;;;;;;1.00;0.80;;;;;;;;;;5051941;28;20971;-67
2021/12/02 07:31:11;;;;;;;1.00;0.90;;;;;;;;;;5052280;28;20472;-65
2021/12/02 07:33:38;;;;;;;1.00;0.90;;;;;;;;;;5052960;28;20423;-65
2021/12/02 07:36:04;;;;;;;4.13;0.83;;;;;;;;;;5050834;28;20419;-66
2021/12/02 07:38:31;;;;;;;1.53;0.80;;;;;;;;;;5033116;28;20412;-67
2021/12/02 07:41:03;;;;;;;1.00;0.80;;;;;;;;;;5032951;28;20785;-66
2021/12/02 07:43:30;;;;;;;1.10;0.70;;;;;;;;;;5032971;28;20469;-65
2021/12/02 07:45:57;;;;;;;5.70;1.57;;;;;;;;;;5046501;28;20481;-66
2021/12/02 07:48:23;;;;;;;1.57;1.00;;;;;;;;;;5049440;28;20400;-65
2021/12/02 07:50:50;;;;;;;7.80;1.67;;;;;;;;;;5052697;28;20492;-65
2021/12/02 07:53:16;;;;;;;3.13;1.73;;;;;;;;;;5052750;28;21084;-65
2021/12/02 07:55:43;;;;;;;1.57;0.80;;;;;;;;;;5038879;28;20962;-64
2021/12/02 07:58:10;;;;;;;2.97;1.17;;;;;;;;;;5032846;28;20412;-65
2021/12/02 08:00:36;;;;;;;2.80;1.50;;;;;;;;;;5032528;28;20446;-66
2021/12/02 08:03:07;;;;;;;1.90;1.10;;;;;;;;;;5032850;28;20425;-65
2021/12/02 08:05:33;;;;;;;1.27;1.17;;;;;;;;;;5032869;28;20909;-67
2021/12/02 08:07:59;;;;;;;2.50;1.30;;;;;;;;;;5032755;28;20402;-65
2021/12/02 08:10:25;;;;;;;1.30;1.10;;;;;;;;;;5032674;28;20406;-65
2021/12/02 08:12:51;;;;;;;3.77;1.10;;;;;;;;;;5032518;28;20841;-67
2021/12/02 08:15:22;;;;;;;1.80;1.00;;;;;;;;;;5032668;28;20761;-66
2021/12/02 08:17:48;;;;;;;1.20;1.10;;;;;;;;;;5032417;28;20419;-66
2021/12/02 08:20:15;;;;;;;0.77;0.77;;;;;;;;;;5035738;28;20414;-66
2021/12/02 08:22:41;;;;;;;1.10;1.00;;;;;;;;;;5052543;28;20405;-66
2021/12/02 08:25:07;;;;;;;1.20;1.10;;;;;;;;;;5052351;28;20749;-67
2021/12/02 08:27:33;;;;;;;1.40;1.30;;;;;;;;;;5052466;28;20414;-67
2021/12/02 08:30:02;;;;;;;3.23;1.60;;;;;;;;;;5038487;28;20448;-66
2021/12/02 08:32:28;;;;;;;1.50;1.40;;;;;;;;;;5032335;28;20817;-66
2021/12/02 08:34:57;;;;;;;7.00;1.27;;;;;;;;;;5032432;28;20398;-65
2021/12/02 08:37:25;;;;;;;4.17;1.40;;;;;;;;;;5032415;28;20738;-66
2021/12/02 08:39:51;;;;;;;4.90;1.60;;;;;;;;;;5032231;28;20955;-64
2021/12/02 08:42:19;;;;;;;2.20;1.37;;;;;;;;;;5035592;28;20406;-66
2021/12/02 08:44:49;;;;;;;1.40;1.10;;;;;;;;;;5036021;28;20426;-66
2021/12/02 08:47:15;;;;;;;4.43;1.60;;;;;;;;;;5035848;28;20457;-66
2021/12/02 08:49:41;;;;;;;1.40;1.30;;;;;;;;;;5055768;28;20817;-66
2021/12/02 08:52:07;;;;;;;18.27;2.90;;;;;;;;;;5055588;28;20466;-66
2021/12/02 08:54:33;;;;;;;4.17;2.37;;;;;;;;;;5055679;28;20460;-66
2021/12/02 08:56:59;;;;;;;3.87;1.47;;;;;;;;;;5037270;28;20478;-66
2021/12/02 08:59:26;;;;;;;2.67;2.47;;;;;;;;;;5035448;28;20494;-66
2021/12/02 09:01:52;;;;;;;1.70;1.60;;;;;;;;;;5035627;28;20505;-66
2021/12/02 09:04:18;;;;;;;1.83;1.30;;;;;;;;;;5035414;28;20421;-66
2021/12/02 09:06:44;;;;;;;2.07;1.40;;;;;;;;;;5051930;28;20413;-65
2021/12/02 09:09:10;;;;;;;2.50;1.40;;;;;;;;;;5055297;28;20475;-65
2021/12/02 09:11:36;;;;;;;5.20;2.00;;;;;;;;;;5055184;28;20948;-65
2021/12/02 09:14:05;;;;;;;2.00;1.80;;;;;;;;;;5047811;28;20434;-67
2021/12/02 09:16:32;;;;;;;1.53;1.30;;;;;;;;;;5035406;28;20449;-65
2021/12/02 09:18:58;;;;;;;1.60;1.50;;;;;;;;;;5035199;28;20410;-64
2021/12/02 09:21:24;;;;;;;1.67;1.53;;;;;;;;;;5035315;28;20403;-66
2021/12/02 09:23:51;;;;;;;1.73;1.60;;;;;;;;;;5035024;28;20427;-66
2021/12/02 09:26:17;;;;;;;3.47;1.70;;;;;;;;;;5035112;28;20445;-64
2021/12/02 09:28:51;;;;;;;2.60;1.87;;;;;;;;;;5034866;28;20894;-66
2021/12/02 09:31:17;;;;;;;1.90;1.50;;;;;;;;;;5034792;28;20932;-66
2021/12/02 09:33:43;;;;;;;4.60;1.50;;;;;;;;;;5033321;28;20531;-66
2021/12/02 09:36:09;;;;;;;2.20;1.40;;;;;;;;;;5034966;28;20994;-66
2021/12/02 09:38:35;;;;;;;1.60;1.07;;;;;;;;;;5035046;28;20431;-66
2021/12/02 09:41:04;;;;;;;2.57;1.47;;;;;;;;;;5044111;28;20896;-66
2021/12/02 09:43:30;;;;;;;2.40;1.50;;;;;;;;;;5054872;28;20448;-67
2021/12/02 09:45:56;;;;;;;3.50;1.20;;;;;;;;;;5054673;28;20421;-66
2021/12/02 09:48:23;;;;;;;4.77;1.23;;;;;;;;;;5054872;28;20456;-67
2021/12/02 09:50:53;;;;;;;1.30;1.20;;;;;;;;;;5040436;28;20436;-65
2021/12/02 09:53:22;;;;;;;2.10;1.37;;;;;;;;;;5034057;28;20512;-67
2021/12/02 09:56:04;;;;;;;2.10;1.37;;;;;;;;;;5036172;28;20532;-67
2021/12/02 09:58:30;;;;;;;3.87;1.73;;;;;;;;;;5038301;28;20545;-66
2021/12/02 10:03:30;;;;;;;1.30;1.20;;;;;;;;;;5054502;28;20434;-66
2021/12/02 10:06:06;;;;;;;4.50;1.67;;;;;;;;;;5051631;28;20454;-64
2021/12/02 10:08:37;;;;;;;1.30;1.20;;;;;;;;;;5034386;28;20404;-65
2021/12/02 10:11:06;;;;;;;1.47;1.30;;;;;;;;;;5034208;28;20469;-65
2021/12/02 10:13:44;;;;;;;2.50;1.17;;;;;;;;;;5034163;28;20870;-64
2021/12/02 10:16:31;;;;;;;1.87;1.17;;;;;;;;;;5034248;28;20772;-65
2021/12/02 10:19:12;;;;;;;3.57;1.30;;;;;;;;;;5034254;28;20398;-65
2021/12/02 10:21:49;;;;;;;1.03;0.93;;;;;;;;;;5034299;28;20443;-65
2021/12/02 10:24:23;;;;;;;0.93;0.90;;;;;;;;;;5034196;28;20487;-65
2021/12/02 10:26:52;;;;;;;1.47;0.80;;;;;;;;;;5045068;28;20427;-65
2021/12/02 10:29:23;;;;;;;1.00;1.00;;;;;;;;;;5053730;28;20778;-65
2021/12/02 10:32:05;;;;;;;1.73;0.90;;;;;;;;;;5053606;28;20450;-63
2021/12/02 10:34:32;;;;;;;1.03;0.87;;;;;;;;;;5052883;28;21175;-65
2021/12/02 10:37:08;;;;;;;1.03;0.93;;;;;;;;;;5053593;28;20863;-65
2021/12/02 10:39:34;;;;;;;1.10;1.00;;;;;;;;;;5053671;28;20391;-65
2021/12/02 10:42:05;;;;;;;1.40;1.30;;;;;;;;;;5052805;28;20838;-65
2021/12/02 10:44:35;;;;;;;1.00;1.00;;;;;;;;;;5053727;28;20402;-65
2021/12/02 10:47:12;;;;;;;1.50;1.40;;;;;;;;;;5053579;28;20520;-65
2021/12/02 10:49:52;;;;;;;1.17;1.10;;;;;;;;;;5053552;28;20949;-63
2021/12/02 10:52:22;;;;;;;0.97;0.97;;;;;;;;;;5037543;28;20465;-64
2021/12/02 10:54:51;;;;;;;1.73;1.20;;;;;;;;;;5033497;28;20827;-64
2021/12/02 10:57:22;;;;;;;1.10;0.90;;;;;;;;;;5033253;28;20459;-64
2021/12/02 10:59:50;;;;;;;1.57;0.90;;;;;;;;;;5041509;28;20517;-64
2021/12/02 11:02:20;;;;;;;1.00;0.80;;;;;;;;;;5053305;28;20908;-63
2021/12/02 11:04:53;;;;;;;1.10;0.73;;;;;;;;;;5052245;28;20398;-64
2021/12/02 11:07:29;;;;;;;1.20;0.70;;;;;;;;;;5047637;28;20547;-65
2021/12/02 11:09:56;;;;;;;1.00;0.90;;;;;;;;;;5033336;28;20415;-65
2021/12/02 11:12:24;;;;;;;0.80;0.80;;;;;;;;;;5032968;28;20525;-65
2021/12/02 11:14:58;;;;;;;1.30;0.80;;;;;;;;;;5047904;28;20442;-65
2021/12/02 11:17:29;;;;;;;1.00;0.90;;;;;;;;;;5037892;28;20946;-64
2021/12/02 11:19:55;;;;;;;1.53;0.73;;;;;;;;;;5033235;28;20442;-64
2021/12/02 11:22:22;;;;;;;2.00;1.00;;;;;;;;;;5033154;28;20413;-64
2021/12/02 11:24:49;;;;;;;0.90;0.80;;;;;;;;;;5033305;28;20400;-64
2021/12/02 11:27:18;;;;;;;1.87;0.70;;;;;;;;;;5053122;28;20413;-64
2021/12/02 11:29:52;;;;;;;1.23;1.00;;;;;;;;;;5052924;28;20571;-64
2021/12/02 11:32:24;;;;;;;1.70;0.83;;;;;;;;;;5052810;28;20819;-64
2021/12/02 11:35:08;;;;;;;1.13;0.70;;;;;;;;;;5033552;28;20430;-64
2021/12/02 11:37:38;;;;;;;1.33;0.90;;;;;;;;;;5032974;28;20407;-64
2021/12/02 11:40:24;;;;;;;2.00;1.60;;;;;;;;;;5032898;28;20419;-64
2021/12/02 11:42:51;;;;;;;2.27;1.10;;;;;;;;;;5032539;28;20424;-65
2021/12/02 11:45:18;;;;;;;1.43;1.27;;;;;;;;;;5032839;28;20400;-64
2021/12/02 11:47:44;;;;;;;9.43;4.93;;;;;;;;;;5032923;28;20439;-64
2021/12/02 11:50:12;;;;;;;1.23;1.13;;;;;;;;;;5033027;28;20481;-65
2021/12/02 11:52:39;;;;;;;1.13;1.03;;;;;;;;;;5032687;28;20475;-63
2021/12/02 11:55:13;;;;;;;1.17;1.07;;;;;;;;;;5032702;28;20414;-63
2021/12/02 11:57:39;;;;;;;5.40;1.40;;;;;;;;;;5032926;28;20414;-65
2021/12/02 12:00:07;;;;;;;1.50;1.30;;;;;;;;;;5032665;28;20963;-65
2021/12/02 12:02:33;;;;;;;1.27;1.13;;;;;;;;;;5034699;28;20442;-65
2021/12/02 12:05:01;;;;;;;1.93;1.00;;;;;;;;;;5032862;28;20406;-64
2021/12/02 12:07:38;;;;;;;1.80;0.90;;;;;;;;;;5032550;28;20419;-63
2021/12/02 12:10:18;;;;;;;6.10;1.70;;;;;;;;;;5032665;28;20430;-64
2021/12/02 12:12:45;;;;;;;2.30;1.47;;;;;;;;;;5032527;28;20492;-65
2021/12/02 12:15:30;;;;;;;1.20;1.10;;;;;;;;;;5033686;28;20470;-65
2021/12/02 12:17:56;;;;;;;1.50;1.30;;;;;;;;;;5056345;28;20423;-65
2021/12/02 12:20:42;;;;;;;1.03;0.97;;;;;;;;;;5056380;28;20444;-63
2021/12/02 12:23:27;;;;;;;1.17;1.07;;;;;;;;;;5056212;28;20422;-63
2021/12/02 12:26:07;;;;;;;1.17;1.00;;;;;;;;;;5055382;28;20414;-64
2021/12/02 12:28:53;;;;;;;1.20;1.10;;;;;;;;;;5056098;28;20766;-64
2021/12/02 12:31:21;;;;;;;1.50;1.40;;;;;;;;;;5055718;28;20422;-64
2021/12/02 12:33:47;;;;;;;2.03;1.10;;;;;;;;;;5055183;28;20431;-63
2021/12/02 12:36:33;;;;;;;3.43;1.50;;;;;;;;;;5056120;28;20397;-64
2021/12/02 12:39:18;;;;;;;2.33;1.30;;;;;;;;;;5055302;28;20525;-65
2021/12/02 12:41:44;;;;;;;3.10;1.97;;;;;;;;;;5053502;28;20410;-65
2021/12/02 12:44:10;;;;;;;1.47;1.37;;;;;;;;;;5035942;28;20462;-65
2021/12/02 12:46:53;;;;;;;2.63;1.73;;;;;;;;;;5035862;28;20403;-66
2021/12/02 12:49:19;;;;;;;1.73;1.53;;;;;;;;;;5036201;28;20435;-65
2021/12/02 12:51:54;;;;;;;4.07;1.97;;;;;;;;;;5055620;28;20462;-66
2021/12/02 12:54:22;;;;;;;1.63;1.53;;;;;;;;;;5055742;28;20421;-65
2021/12/02 12:56:49;;;;;;;1.90;1.70;;;;;;;;;;5055460;28;20516;-66
2021/12/02 12:59:16;;;;;;;1.70;1.60;;;;;;;;;;5036677;28;20440;-65
2021/12/02 13:01:54;;;;;;;2.10;1.83;;;;;;;;;;5035715;28;20399;-65
2021/12/02 13:04:24;;;;;;;1.80;1.50;;;;;;;;;;5035842;28;20976;-66
2021/12/02 13:07:09;;;;;;;1.30;1.20;;;;;;;;;;5039052;28;20417;-66
2021/12/02 13:09:38;;;;;;;2.20;2.00;;;;;;;;;;5035379;28;20422;-65
2021/12/02 13:12:05;;;;;;;1.70;1.43;;;;;;;;;;5035321;28;20494;-66
2021/12/02 13:14:31;;;;;;;2.37;2.17;;;;;;;;;;5036081;28;20402;-66
2021/12/02 13:16:57;;;;;;;2.10;1.80;;;;;;;;;;5055285;28;20731;-66
2021/12/02 13:19:23;;;;;;;1.90;1.37;;;;;;;;;;5055292;28;20418;-65
2021/12/02 13:21:56;;;;;;;1.73;1.63;;;;;;;;;;5055204;28;20464;-66
2021/12/02 13:24:32;;;;;;;2.13;1.93;;;;;;;;;;5037613;28;20419;-66
2021/12/02 13:27:06;;;;;;;1.80;1.57;;;;;;;;;;5034559;28;20485;-64
2021/12/02 13:29:33;;;;;;;2.60;1.63;;;;;;;;;;5034989;28;20909;-65
2021/12/02 13:32:01;;;;;;;4.97;2.30;;;;;;;;;;5034803;28;20506;-66
2021/12/02 13:34:28;;;;;;;2.47;2.27;;;;;;;;;;5035082;28;20427;-66
2021/12/02 13:36:57;;;;;;;2.03;1.93;;;;;;;;;;5034928;28;20442;-64
2021/12/02 13:39:28;;;;;;;2.13;1.90;;;;;;;;;;5034906;28;20767;-64
2021/12/02 13:41:59;;;;;;;3.37;1.80;;;;;;;;;;5045869;28;20410;-66
2021/12/02 13:44:31;;;;;;;3.43;2.23;;;;;;;;;;5054834;28;20413;-65
2021/12/02 13:46:59;;;;;;;3.40;2.47;;;;;;;;;;5054763;28;20394;-66
2021/12/02 13:49:29;;;;;;;5.80;3.83;;;;;;;;;;5054787;28;20458;-66
2021/12/02 13:55:53;;;;;;;3.05;1.10;;;;;;;;;;5064129;28;20517;-65
2021/12/02 13:58:08;;;;;;;2.93;1.30;;;;;;;;;;5057258;28;20203;-65
2021/12/02 14:00:39;;;;;;;1.20;0.93;;;;;;;;;;5053521;28;20955;-65
2021/12/02 14:03:09;;;;;;;2.60;0.93;;;;;;;;;;5050966;28;20430;-65
2021/12/02 14:05:41;;;;;;;2.17;1.00;;;;;;;;;;5054371;28;20500;-65
2021/12/02 14:08:12;;;;;;;2.03;1.10;;;;;;;;;;5054389;28;20403;-65
2021/12/02 14:10:38;;;;;;;1.10;1.00;;;;;;;;;;5053385;28;20417;-65
2021/12/02 14:13:09;;;;;;;1.23;1.13;;;;;;;;;;5054233;28;20508;-65
2021/12/02 14:15:42;;;;;;;1.20;1.03;;;;;;;;;;5054166;28;20419;-65
2021/12/02 14:18:08;;;;;;;2.37;1.13;;;;;;;;;;5053200;28;20437;-65
2021/12/02 14:20:39;;;;;;;1.00;0.87;;;;;;;;;;5054031;28;20414;-66
2021/12/02 14:23:07;;;;;;;3.83;1.17;;;;;;;;;;5054032;28;20414;-65
2021/12/02 14:25:34;;;;;;;1.50;1.03;;;;;;;;;;5053045;28;20517;-65
2021/12/02 14:28:21;;;;;;;2.50;1.23;;;;;;;;;;5053998;28;20413;-65
2021/12/02 14:30:51;;;;;;;1.43;1.10;;;;;;;;;;5053693;28;20469;-65
2021/12/02 14:33:22;;;;;;;1.47;1.37;;;;;;;;;;5053798;28;20470;-65
2021/12/02 14:35:50;;;;;;;2.63;1.53;;;;;;;;;;5052982;28;20423;-66
2021/12/02 14:38:21;;;;;;;2.40;2.00;;;;;;;;;;5053481;28;20410;-65
2021/12/02 14:40:47;;;;;;;4.20;1.50;;;;;;;;;;5053663;28;20433;-65
2021/12/02 14:43:24;;;;;;;2.33;1.90;;;;;;;;;;5052704;28;20436;-65
2021/12/02 14:45:51;;;;;;;2.40;1.83;;;;;;;;;;5053676;28;20489;-65
2021/12/02 14:48:28;;;;;;;2.87;2.13;;;;;;;;;;5053482;28;20407;-65
2021/12/02 14:51:03;;;;;;;2.00;1.80;;;;;;;;;;5052653;28;20461;-65
2021/12/02 14:53:48;;;;;;;2.50;2.00;;;;;;;;;;5053373;28;20469;-65
2021/12/02 14:56:19;;;;;;;2.43;1.90;;;;;;;;;;5053296;28;20496;-65
2021/12/02 14:59:04;;;;;;;2.83;1.47;;;;;;;;;;5052522;28;20427;-65
2021/12/02 15:01:30;;;;;;;2.70;1.60;;;;;;;;;;5053289;28;20379;-65
2021/12/02 15:03:56;;;;;;;2.20;1.90;;;;;;;;;;5052970;28;20460;-65
2021/12/02 15:06:38;;;;;;;2.40;2.00;;;;;;;;;;5053311;28;20398;-65
2021/12/02 15:09:24;;;;;;;6.53;2.30;;;;;;;;;;5052412;28;20454;-65
2021/12/02 15:11:50;;;;;;;2.47;2.27;;;;;;;;;;5053158;28;20226;-65
2021/12/02 15:14:34;;;;;;;1.90;1.80;;;;;;;;;;5053209;28;20730;-65